Aeroporto :
LOGIN :

Iscrizione | Disclaimer

   EN    FR    IT 

 










Sommario :    VFR   VFR Marginale   IFR   IFR Intensivo   IFR Molto Intensivo
Visibilità : 
Base nubi : 
>= 8 km
>= 3000ft
5 / 8 km
1000 / 3000 ft
1500m / 5 km
500 / 1000 ft
800 / 1500m
200 / 500 ft
< 800m
< 200 ft
Simboli :   Temporali  Nebbia  Neve Forte  Precipitazioni Forti  Vento > 20 kt
SIGMETs :   Varie  Temporali  Ghiacco  Turbolenza  Onda orograficha  Ceneri Vulcaniche






- Altitudine del aeroporto : 1959 ft
- Codice IATA : HOQ


EDQM - Hof Plauen

ULTIMO METAR :
  • 191820Z 00000KT 5000 -RA BR SCT016 02/02 Q1016

METARs OBSOLETI :
  • 191750Z 29001KT 7000 -RA BKN018 03/02 Q1016
  • 191720Z 30003KT 8000 -RA SCT019 03/02 Q1016
  • 191650Z 00000KT 8000 -DZ BKN018 02/01 Q1016
  • 191620Z 29001KT 9999 -DZ BKN016 03/01 Q1016
  • 191550Z 00000KT 9999 -RA BKN015 03/01 Q1016

TAF TAF EDQM
Valido dal 19 a 18 ore il 20 a 03 ore UTC


191700Z 1918/2003 VRB02KT 8000 BKN014
BECMG 1918/1921 4000 BR BKN009
PROB30
TEMPO 1921/2003 2500 BR BKN004



MetMap, La meteo Aeronautica in un colpo d'occhio ! - Copyright ORBIFLY Dicembre 2007 - Disclaimer

ORBIFLY MET'MAP TEAM :

Programmazione e sviluppo : Alexandra Zaïnal
Concezione e sviluppo : Baudouin d'Aumeries
Co-Programmazione e sviluppo : Marc-Olivier Méhu
Supporto tecnico e logistico : Manuel Goepfert
Aiuto per la traduzione : Arnaldo La Scala

Contatto : metmap@orbifly.com




FONTI E CREDITI :

   NOAA